SCJO

Cañal Bajo Carlos - Hott Siebert Airport

Osorno, Chile
TAF SCJO 201022Z 2012/2024 35010KT 8000 -SHRA BKN010 OVC030 TN12/2012Z TX18/2018Z TEMPO 2013/2016 5000 RA OVC010 BECMG 2016/2018 9999 BKN030
Issued Valid From Valid To
Apr-20 @ 10:22 UTC
(8 hours ago)
Apr-20 @ 12:00 UTC
(6 hours ago)
Apr-21 @ 00:00 UTC
(in 6 hours)
Expired Click to View Apr-20 @ 12:00 to Apr-20 @ 16:00
TAF SCJO 201022Z 2012/2024 35010KT 8000 -SHRA BKN010 OVC030 TN12/2012Z TX18/2018Z
Wind Visibility Clouds Conditions
350° at 10 knots 7,998 meters
  • Broken at 1,000' AGL
  • Overcast at 3,000' AGL
  • Light Rain
Expired Click to View Apr-20 @ 13:00 to Apr-20 @ 16:00
TEMPO 2013/2016 5000 RA OVC010
Visibility Clouds Conditions
5,005 meters
  • Overcast at 1,000' AGL
  • Rain
Becoming Apr-20 @ 16:00 to Apr-21 @ 00:00
BECMG 2016/2018 9999 BKN030
Wind Visibility Clouds Conditions
350° at 10 knots 10,000+ meters
  • Broken at 3,000' AGL
  • Light Rain
TAF SCJO 201022Z 2012/2024 35010KT 8000 -SHRA BKN010 OVC030 TN12/2012Z TX18/2018Z TEMPO 2013/2016 5000 RA OVC010 BECMG 2016/2018 9999 BKN030
Issued Apr-20 @ 10:22 UTC
(8 hours ago)
Valid From Apr-20 @ 12:00 UTC
(6 hours ago)
Valid To Apr-21 @ 00:00 UTC
(in 6 hours)
Apr-20 @ 12:00 - Apr-20 @ 16:00
Wind Visibility
350° at 10 knots 7,998 meters
Clouds
  • Broken at 1,000' AGL
  • Overcast at 3,000' AGL
Conditions
  • Light Rain
Apr-20 @ 13:00 - Apr-20 @ 16:00
Clouds
  • Overcast at 1,000' AGL
Conditions
  • Rain
Becoming Apr-20 @ 16:00 - Apr-21 @ 00:00
Wind Visibility
350° at 10 knots 10,000+ meters
Clouds
  • Broken at 3,000' AGL
Conditions
  • Light Rain